Ellwood City, Pennsylvania
Current Conditions -  °F | °C
As of 9:47 AM on Friday 19 Dec 2014 (Local Time) from KBVI Reporting Station
Overcast Overcast  
Wind Chill: 23°   Ceiling: 700
Heat Index: 28°   Visibility: 10mi
Dew Point: 28°   Wind: 5mph
Humidity: 100%   Direction: 320°NW
Pressure: 30.2"   Gusts: NA
Location:  40.86°N, 80.29°W
Report Text: KBVI 191447Z 32004KT 10SM OVC007 M02/M02 A3020
Loading
Personal Weather Stations






























Interactive Weather Map New forecast layout! Learn more

10-Day Weather Forecast

Advertisements
Track Severe Weather on mobile